createdAt,value
2022-09-03T00:00:56.847Z,23.55
2022-09-03T00:06:17.492Z,23.56
2022-09-03T00:11:28.657Z,23.55
2022-09-03T00:16:52.957Z,23.57
2022-09-03T00:22:15.084Z,23.53
2022-09-03T00:27:18.913Z,23.55
2022-09-03T00:32:26.816Z,23.48
2022-09-03T00:37:30.004Z,23.50
2022-09-03T00:42:43.615Z,23.52
2022-09-03T00:48:06.488Z,23.52
2022-09-03T00:53:43.097Z,23.58
2022-09-03T00:59:19.522Z,23.58
2022-09-03T01:04:42.257Z,23.57
2022-09-03T01:09:54.534Z,23.62
2022-09-03T01:15:01.909Z,23.54
2022-09-03T01:20:12.340Z,23.55
2022-09-03T01:25:36.692Z,23.49
2022-09-03T01:30:42.606Z,23.55
2022-09-03T01:35:48.475Z,23.56
2022-09-03T01:40:57.392Z,23.57
2022-09-03T01:46:16.982Z,23.55
2022-09-03T01:51:27.627Z,23.58
2022-09-03T01:56:34.317Z,23.49
2022-09-03T02:01:39.689Z,23.54
2022-09-03T02:06:41.103Z,23.57
2022-09-03T02:11:42.609Z,23.53
2022-09-03T02:16:44.779Z,23.53
2022-09-03T02:21:53.176Z,23.62
2022-09-03T02:26:54.569Z,23.59
2022-09-03T02:31:55.968Z,23.59
2022-09-03T02:36:57.374Z,23.53
2022-09-03T02:41:58.780Z,23.53
2022-09-03T02:47:02.564Z,23.65
2022-09-03T02:52:12.169Z,23.56
2022-09-03T02:57:14.813Z,23.51
2022-09-03T03:02:16.452Z,23.54
2022-09-03T03:07:17.968Z,23.57
2022-09-03T03:12:19.826Z,23.59
2022-09-03T03:17:21.272Z,23.64
2022-09-03T03:22:22.677Z,23.61
2022-09-03T03:27:24.123Z,23.62
2022-09-03T03:32:26.545Z,23.57
2022-09-03T03:37:27.952Z,23.61
2022-09-03T03:42:29.397Z,23.51
2022-09-03T03:47:31.049Z,23.58
2022-09-03T03:52:32.503Z,23.57
2022-09-03T03:57:33.914Z,23.49
2022-09-03T04:02:39.038Z,23.49
2022-09-03T04:07:40.816Z,23.50
2022-09-03T04:12:43.237Z,23.54
2022-09-03T04:17:44.680Z,23.52
2022-09-03T04:22:50.195Z,23.62
2022-09-03T04:27:53.309Z,23.52
2022-09-03T04:32:54.878Z,23.54
2022-09-03T04:37:57.260Z,23.58
2022-09-03T04:43:01.596Z,23.55
2022-09-03T04:48:03.448Z,23.47
2022-09-03T04:53:08.014Z,23.55
2022-09-03T04:58:09.846Z,23.55
2022-09-03T05:03:11.268Z,23.58
2022-09-03T05:08:12.676Z,23.62
2022-09-03T05:13:14.077Z,23.58
2022-09-03T05:18:16.317Z,23.55
2022-09-03T05:23:22.173Z,23.55
2022-09-03T05:28:24.463Z,23.58
2022-09-03T05:33:26.064Z,23.56
2022-09-03T05:38:27.473Z,23.57
2022-09-03T05:43:29.077Z,23.58
2022-09-03T05:48:30.905Z,23.59
2022-09-03T05:53:33.973Z,23.59
2022-09-03T05:58:36.422Z,23.59
2022-09-03T06:03:39.286Z,23.56
2022-09-03T06:08:41.473Z,23.53
2022-09-03T06:13:42.864Z,23.54
2022-09-03T06:18:44.385Z,23.60
2022-09-03T06:23:52.617Z,23.50
2022-09-03T06:28:54.953Z,23.52
2022-09-03T06:33:59.619Z,23.55
2022-09-03T06:39:02.253Z,23.50
2022-09-03T06:44:11.332Z,23.51
2022-09-03T06:49:12.781Z,23.51
2022-09-03T06:54:15.708Z,23.53
2022-09-03T06:59:17.105Z,23.52
2022-09-03T07:04:20.286Z,23.59
2022-09-03T07:09:21.940Z,23.46
2022-09-03T07:14:23.803Z,23.61
2022-09-03T07:19:25.250Z,23.52
2022-09-03T07:24:27.604Z,23.52
2022-09-03T07:29:29.020Z,23.50
2022-09-03T07:34:30.431Z,23.50
2022-09-03T07:39:33.467Z,23.48
2022-09-03T07:44:34.950Z,23.47
2022-09-03T07:49:36.533Z,23.55
2022-09-03T07:54:37.941Z,23.53
2022-09-03T07:59:39.353Z,23.48
2022-09-03T08:04:40.936Z,23.49
2022-09-03T08:09:43.236Z,23.45
2022-09-03T08:14:44.713Z,23.43
2022-09-03T08:19:46.821Z,23.36
2022-09-03T08:24:48.460Z,23.51
2022-09-03T08:29:49.865Z,23.49
2022-09-03T08:34:52.169Z,23.44
2022-09-03T08:39:53.661Z,23.43
2022-09-03T08:44:57.153Z,23.41
2022-09-03T08:50:10.891Z,23.42
2022-09-03T08:55:30.725Z,23.45
2022-09-03T09:01:03.815Z,23.39
2022-09-03T09:06:18.768Z,23.48
2022-09-03T09:11:32.529Z,23.39
2022-09-03T09:16:42.636Z,23.43
2022-09-03T09:21:50.805Z,23.46
2022-09-03T09:26:59.498Z,23.45
2022-09-03T09:32:00.904Z,23.38
2022-09-03T09:37:04.458Z,23.41
2022-09-03T09:42:09.300Z,23.45
2022-09-03T09:47:21.548Z,23.38
2022-09-03T09:52:25.796Z,23.49
2022-09-03T09:57:27.212Z,23.49
2022-09-03T10:02:28.696Z,23.55
2022-09-03T10:07:32.052Z,23.58
2022-09-03T10:12:36.072Z,23.55
2022-09-03T10:18:04.832Z,23.57
2022-09-03T10:23:16.341Z,23.64
2022-09-03T10:28:17.838Z,23.64
2022-09-03T10:33:24.325Z,23.64
2022-09-03T10:38:31.348Z,23.55
2022-09-03T10:43:51.933Z,23.63
2022-09-03T10:49:20.487Z,23.71
2022-09-03T10:54:32.457Z,23.57
2022-09-03T10:59:42.885Z,23.52
2022-09-03T11:04:55.729Z,23.75
2022-09-03T11:10:31.220Z,23.72
2022-09-03T11:15:37.708Z,23.63
2022-09-03T11:20:39.216Z,23.66
2022-09-03T11:25:47.217Z,23.75
2022-09-03T11:31:03.638Z,23.73
2022-09-03T11:36:06.397Z,23.83
2022-09-03T11:41:34.736Z,23.80
2022-09-03T11:46:36.388Z,23.77
2022-09-03T11:51:39.470Z,23.83
2022-09-03T11:56:41.257Z,23.79
2022-09-03T12:01:58.866Z,23.82
2022-09-03T12:07:38.429Z,23.86
2022-09-03T12:13:18.845Z,23.89
2022-09-03T12:18:29.033Z,23.83
2022-09-03T12:23:49.455Z,23.89
2022-09-03T12:28:52.508Z,23.89
2022-09-03T12:33:54.689Z,23.96
2022-09-03T12:39:12.810Z,23.91
2022-09-03T12:44:14.624Z,23.98
2022-09-03T12:49:31.433Z,24.00
2022-09-03T12:54:33.943Z,23.93
2022-09-03T12:59:35.372Z,23.99
2022-09-03T13:04:36.804Z,24.00
2022-09-03T13:09:38.339Z,23.99
2022-09-03T13:14:47.525Z,23.96
2022-09-03T13:20:15.960Z,23.97
2022-09-03T13:25:52.914Z,23.96
2022-09-03T13:31:10.622Z,24.02
2022-09-03T13:36:16.504Z,24.01
2022-09-03T13:41:34.644Z,24.04
2022-09-03T13:47:11.725Z,24.03
2022-09-03T13:52:45.451Z,24.02
2022-09-03T13:57:50.750Z,24.01
2022-09-03T14:02:53.041Z,24.06
2022-09-03T14:08:15.428Z,24.05
2022-09-03T14:13:30.706Z,24.06
2022-09-03T14:18:39.842Z,24.05
2022-09-03T14:24:11.637Z,24.07
2022-09-03T14:29:12.910Z,24.05
2022-09-03T14:34:37.024Z,24.07
2022-09-03T14:39:52.144Z,24.07
2022-09-03T14:45:17.929Z,24.10
2022-09-03T14:50:42.090Z,24.11
2022-09-03T14:56:06.024Z,24.10
2022-09-03T15:01:13.236Z,24.10
2022-09-03T15:06:28.103Z,24.11
2022-09-03T15:11:34.204Z,24.09
2022-09-03T15:17:00.396Z,24.06
2022-09-03T15:22:24.329Z,24.12
2022-09-03T15:27:34.050Z,24.12
2022-09-03T15:32:57.577Z,24.15
2022-09-03T15:38:08.076Z,24.09
2022-09-03T15:43:21.778Z,24.11
2022-09-03T15:48:34.116Z,24.13
2022-09-03T15:53:50.052Z,24.12
2022-09-03T15:59:22.289Z,24.14
2022-09-03T16:04:50.408Z,24.17
2022-09-03T16:10:24.374Z,24.13
2022-09-03T16:15:29.160Z,24.13
2022-09-03T16:20:45.940Z,24.18
2022-09-03T16:25:57.210Z,24.20
2022-09-03T16:31:35.703Z,24.16
2022-09-03T16:36:47.249Z,24.16
2022-09-03T16:42:11.834Z,24.17
2022-09-03T16:47:37.845Z,24.14
2022-09-03T16:52:57.305Z,24.16
2022-09-03T16:58:07.953Z,24.17
2022-09-03T17:03:25.797Z,24.18
2022-09-03T17:08:52.877Z,24.16
2022-09-03T17:14:21.632Z,24.18
2022-09-03T17:19:35.072Z,24.13
2022-09-03T17:24:59.979Z,24.11
2022-09-03T17:30:05.384Z,24.09
2022-09-03T17:35:25.216Z,24.09
2022-09-03T17:40:44.544Z,24.10
2022-09-03T17:45:48.817Z,24.07
2022-09-03T17:50:53.985Z,24.08
2022-09-03T17:56:03.144Z,24.05
2022-09-03T18:01:29.669Z,24.05
2022-09-03T18:06:54.869Z,24.04
2022-09-03T18:12:23.484Z,24.06
2022-09-03T18:17:33.533Z,24.03
2022-09-03T18:23:22.484Z,24.03
2022-09-03T18:28:50.553Z,24.04
2022-09-03T18:34:10.585Z,24.04
2022-09-03T18:39:30.230Z,23.95
2022-09-03T18:45:22.074Z,24.05
2022-09-03T18:51:00.845Z,23.99
2022-09-03T18:56:22.975Z,23.96
2022-09-03T19:01:51.151Z,23.99
2022-09-03T19:07:26.001Z,23.94
2022-09-03T19:13:02.432Z,23.99
2022-09-03T19:18:38.818Z,23.94
2022-09-03T19:23:58.916Z,23.88
2022-09-03T19:29:22.252Z,23.91
2022-09-03T19:35:24.468Z,23.87
2022-09-03T19:41:09.397Z,23.82
2022-09-03T19:47:00.184Z,23.83
2022-09-03T19:52:32.156Z,23.90
2022-09-03T19:57:52.156Z,23.89
2022-09-03T20:03:15.757Z,23.84
2022-09-03T20:08:35.945Z,23.85
2022-09-03T20:13:58.937Z,23.88
2022-09-03T20:19:06.404Z,23.85
2022-09-03T20:24:33.292Z,23.83
2022-09-03T20:29:59.629Z,23.78
2022-09-03T20:35:08.164Z,23.84
2022-09-03T20:40:29.712Z,23.79
2022-09-03T20:46:10.015Z,23.74
2022-09-03T20:51:17.445Z,23.68
2022-09-03T20:56:25.088Z,23.61
2022-09-03T21:01:57.364Z,23.61
2022-09-03T21:07:13.182Z,23.80
2022-09-03T21:12:21.424Z,23.69
2022-09-03T21:17:28.825Z,23.66
2022-09-03T21:22:38.980Z,23.55
2022-09-03T21:27:46.315Z,23.61
2022-09-03T21:32:52.053Z,23.63
2022-09-03T21:38:13.540Z,23.53
2022-09-03T21:43:20.513Z,23.53
2022-09-03T21:48:28.036Z,23.64
2022-09-03T21:53:43.077Z,23.59
2022-09-03T21:58:50.416Z,23.51
2022-09-03T22:03:51.908Z,23.57
2022-09-03T22:09:01.861Z,23.62
2022-09-03T22:14:08.511Z,23.72
2022-09-03T22:19:09.939Z,23.68
2022-09-03T22:24:24.568Z,23.76
2022-09-03T22:29:53.030Z,23.61
2022-09-03T22:35:03.684Z,23.70
2022-09-03T22:40:37.794Z,23.67
2022-09-03T22:45:59.283Z,23.77
2022-09-03T22:51:01.718Z,23.79
2022-09-03T22:56:14.641Z,23.76
2022-09-03T23:01:42.421Z,23.78
2022-09-03T23:07:01.709Z,23.78
2022-09-03T23:12:20.037Z,23.72
2022-09-03T23:17:25.146Z,23.78
2022-09-03T23:22:59.570Z,23.82
2022-09-03T23:28:03.044Z,23.73
2022-09-03T23:33:04.470Z,23.76
2022-09-03T23:38:05.749Z,23.63
2022-09-03T23:43:15.776Z,23.55
2022-09-03T23:48:41.916Z,23.62
2022-09-03T23:54:02.400Z,23.65
2022-09-03T23:59:22.084Z,23.64
